createdAt,value
2019-04-25T00:02:32.554Z,12.30
2019-04-25T00:04:58.953Z,12.40
2019-04-25T00:07:25.194Z,12.20
2019-04-25T00:09:52.599Z,12.20
2019-04-25T00:12:19.246Z,12.30
2019-04-25T00:14:45.855Z,12.40
2019-04-25T00:17:12.346Z,12.30
2019-04-25T00:19:38.741Z,12.10
2019-04-25T00:22:09.818Z,11.90
2019-04-25T00:24:54.450Z,12.00
2019-04-25T00:27:21.631Z,12.10
2019-04-25T00:29:49.526Z,12.20
2019-04-25T00:32:15.882Z,12.00
2019-04-25T00:34:44.231Z,11.80
2019-04-25T00:37:12.306Z,11.90
2019-04-25T00:39:38.640Z,11.80
2019-04-25T00:42:05.352Z,11.50
2019-04-25T00:44:31.966Z,11.60
2019-04-25T00:46:58.278Z,11.80
2019-04-25T00:49:24.367Z,11.80
2019-04-25T00:51:52.091Z,11.60
2019-04-25T00:54:18.496Z,11.40
2019-04-25T00:56:46.118Z,11.50
2019-04-25T00:59:23.675Z,11.60
2019-04-25T01:01:52.981Z,11.30
2019-04-25T01:04:21.820Z,11.20
2019-04-25T01:06:47.958Z,11.20
2019-04-25T01:09:15.974Z,11.30
2019-04-25T01:11:42.467Z,11.40
2019-04-25T01:14:08.708Z,11.40
2019-04-25T01:16:34.835Z,11.40
2019-04-25T01:19:00.964Z,11.40
2019-04-25T01:21:27.131Z,11.20
2019-04-25T01:23:54.434Z,11.10
2019-04-25T01:26:20.907Z,11.20
2019-04-25T01:28:47.662Z,11.20
2019-04-25T01:31:15.851Z,11.00
2019-04-25T01:33:43.349Z,11.10
2019-04-25T01:36:13.317Z,11.00
2019-04-25T01:38:56.651Z,10.90
2019-04-25T01:41:24.276Z,10.80
2019-04-25T01:43:59.713Z,10.60
2019-04-25T01:46:26.531Z,10.70
2019-04-25T01:48:54.279Z,10.80
2019-04-25T01:51:20.755Z,10.80
2019-04-25T01:53:46.890Z,10.70
2019-04-25T01:56:13.515Z,10.70
2019-04-25T01:58:40.370Z,10.70
2019-04-25T02:01:06.911Z,10.70
2019-04-25T02:03:35.419Z,10.50
2019-04-25T02:06:01.331Z,10.50
2019-04-25T02:08:27.414Z,10.50
2019-04-25T02:10:57.021Z,10.30
2019-04-25T02:13:24.842Z,10.30
2019-04-25T02:15:52.159Z,10.40
2019-04-25T02:18:18.932Z,10.50
2019-04-25T02:20:45.128Z,10.20
2019-04-25T02:23:11.226Z,10.10
2019-04-25T02:25:37.456Z,10.10
2019-04-25T02:28:05.622Z,10.10
2019-04-25T02:30:31.807Z,10.10
2019-04-25T02:33:00.940Z,10.10
2019-04-25T02:35:26.467Z,10.30
2019-04-25T02:37:55.465Z,10.20
2019-04-25T02:40:23.826Z,10.00
2019-04-25T02:42:49.647Z,10.10
2019-04-25T02:45:20.895Z,9.90
2019-04-25T02:48:06.945Z,10.00
2019-04-25T02:50:54.117Z,10.10
2019-04-25T02:53:38.188Z,9.90
2019-04-25T02:56:13.199Z,10.00
2019-04-25T02:58:34.266Z,10.10
2019-04-25T03:01:10.725Z,10.10
2019-04-25T03:03:28.934Z,10.10
2019-04-25T03:05:57.309Z,9.90
2019-04-25T03:08:24.368Z,9.90
2019-04-25T03:10:50.875Z,9.90
2019-04-25T03:13:17.052Z,9.90
2019-04-25T03:15:44.178Z,10.00
2019-04-25T03:18:14.615Z,9.80
2019-04-25T03:20:54.848Z,9.80
2019-04-25T03:23:29.473Z,9.70
2019-04-25T03:25:55.708Z,9.50
2019-04-25T03:28:23.798Z,9.30
2019-04-25T03:30:50.036Z,9.30
2019-04-25T03:33:19.555Z,9.30
2019-04-25T03:35:44.266Z,9.30
2019-04-25T03:38:10.350Z,9.20
2019-04-25T03:40:36.715Z,9.30
2019-04-25T03:43:04.805Z,9.20
2019-04-25T03:45:31.165Z,9.00
2019-04-25T03:47:57.391Z,8.90
2019-04-25T03:50:23.489Z,8.90
2019-04-25T03:52:49.643Z,9.20
2019-04-25T03:55:15.841Z,9.20
2019-04-25T03:57:41.937Z,9.10
2019-04-25T04:00:08.739Z,9.10
2019-04-25T04:02:35.002Z,9.10
2019-04-25T04:05:01.117Z,9.20
2019-04-25T04:07:27.235Z,9.10
2019-04-25T04:09:54.958Z,9.20
2019-04-25T04:12:21.490Z,9.30
2019-04-25T04:14:47.619Z,9.20
2019-04-25T04:17:33.764Z,9.10
2019-04-25T04:20:03.832Z,9.20
2019-04-25T04:22:35.079Z,9.20
2019-04-25T04:25:03.748Z,9.30
2019-04-25T04:27:30.079Z,9.10
2019-04-25T04:29:56.182Z,9.10
2019-04-25T04:32:22.267Z,9.20
2019-04-25T04:34:48.357Z,9.30
2019-04-25T04:37:15.815Z,9.40
2019-04-25T04:39:43.696Z,9.30
2019-04-25T04:42:10.226Z,9.30
2019-04-25T04:44:36.413Z,9.30
2019-04-25T04:47:03.965Z,9.40
2019-04-25T04:49:30.297Z,9.20
2019-04-25T04:51:56.425Z,9.40
2019-04-25T04:54:23.149Z,9.50
2019-04-25T04:56:49.432Z,9.40
2019-04-25T04:59:16.406Z,9.40
2019-04-25T05:02:00.125Z,9.50
2019-04-25T05:04:34.965Z,9.40
2019-04-25T05:07:03.654Z,9.50
2019-04-25T05:09:29.894Z,9.50
2019-04-25T05:11:56.038Z,9.50
2019-04-25T05:14:24.255Z,9.70
2019-04-25T05:16:50.159Z,9.70
2019-04-25T05:19:16.834Z,9.60
2019-04-25T05:21:43.536Z,9.70
2019-04-25T05:24:12.829Z,9.90
2019-04-25T05:26:39.312Z,10.00
2019-04-25T05:29:05.418Z,10.10
2019-04-25T05:31:34.203Z,10.10
2019-04-25T05:34:00.465Z,10.30
2019-04-25T05:36:28.500Z,10.30
2019-04-25T05:38:54.671Z,10.40
2019-04-25T05:41:24.143Z,10.50
2019-04-25T05:43:50.547Z,10.50
2019-04-25T05:46:16.895Z,10.60
2019-04-25T05:48:43.838Z,10.70
2019-04-25T05:51:10.068Z,10.80
2019-04-25T05:53:36.159Z,11.00
2019-04-25T05:56:04.043Z,11.10
2019-04-25T05:58:30.448Z,11.20
2019-04-25T06:00:56.580Z,11.40
2019-04-25T06:03:24.803Z,11.50
2019-04-25T06:05:50.976Z,11.60
2019-04-25T06:08:19.432Z,11.80
2019-04-25T06:10:47.548Z,11.90
2019-04-25T06:13:30.764Z,12.10
2019-04-25T06:15:58.915Z,12.30
2019-04-25T06:18:27.729Z,12.50
2019-04-25T06:20:55.572Z,12.50
2019-04-25T06:23:40.369Z,12.70
2019-04-25T06:26:19.092Z,12.70
2019-04-25T06:28:34.895Z,12.80
2019-04-25T06:31:01.068Z,12.90
2019-04-25T06:33:27.247Z,13.00
2019-04-25T06:35:54.788Z,12.90
2019-04-25T06:38:24.881Z,13.00
2019-04-25T06:40:49.616Z,13.20
2019-04-25T06:43:15.760Z,13.30
2019-04-25T06:45:46.873Z,13.40
2019-04-25T06:48:17.862Z,13.50
2019-04-25T06:50:43.996Z,13.60
2019-04-25T06:53:10.240Z,13.80
2019-04-25T06:55:36.444Z,13.90
2019-04-25T06:58:10.223Z,14.20
2019-04-25T07:00:34.890Z,14.30
2019-04-25T07:02:58.826Z,14.30
2019-04-25T07:05:32.426Z,14.50
2019-04-25T07:07:53.580Z,14.60
2019-04-25T07:10:19.799Z,14.70
2019-04-25T07:12:45.906Z,14.90
2019-04-25T07:15:13.863Z,15.10
2019-04-25T07:17:40.192Z,15.20
2019-04-25T07:20:09.871Z,15.10
2019-04-25T07:22:36.253Z,15.20
2019-04-25T07:25:05.226Z,15.40
2019-04-25T07:27:50.116Z,15.60
2019-04-25T07:30:27.403Z,15.70
2019-04-25T07:32:50.070Z,15.90
2019-04-25T07:35:16.338Z,16.40
2019-04-25T07:37:44.092Z,16.80
2019-04-25T07:40:11.502Z,16.80
2019-04-25T07:42:37.664Z,17.30
2019-04-25T07:45:08.541Z,17.40
2019-04-25T07:47:35.487Z,17.30
2019-04-25T07:50:05.207Z,17.10
2019-04-25T07:52:31.327Z,17.00
2019-04-25T07:54:57.494Z,17.20
2019-04-25T07:57:23.906Z,17.20
2019-04-25T07:59:51.700Z,17.40
2019-04-25T08:02:18.264Z,17.60
2019-04-25T08:04:44.479Z,17.70
2019-04-25T08:07:10.720Z,17.80
2019-04-25T08:09:37.922Z,17.80
2019-04-25T08:12:04.334Z,17.80
2019-04-25T08:14:41.219Z,17.90
2019-04-25T08:17:09.207Z,18.00
2019-04-25T08:19:35.623Z,18.10
2019-04-25T08:22:03.648Z,18.20
2019-04-25T08:24:30.806Z,18.50
2019-04-25T08:26:57.477Z,18.70
2019-04-25T08:29:25.311Z,18.60
2019-04-25T08:31:53.112Z,18.70
2019-04-25T08:34:19.708Z,18.90
2019-04-25T08:36:45.887Z,19.10
2019-04-25T08:39:14.513Z,19.20
2019-04-25T08:41:40.959Z,19.30
2019-04-25T08:44:07.642Z,19.40
2019-04-25T08:46:36.763Z,19.40
2019-04-25T08:49:06.294Z,19.60
2019-04-25T08:51:34.925Z,19.50
2019-04-25T08:54:04.181Z,19.60
2019-04-25T08:56:34.236Z,19.70
2019-04-25T08:59:07.978Z,19.80
2019-04-25T09:01:53.598Z,19.80
2019-04-25T09:04:21.925Z,20.00
2019-04-25T09:06:48.115Z,20.20
2019-04-25T09:09:14.230Z,20.50
2019-04-25T09:11:41.327Z,20.70
2019-04-25T09:14:07.510Z,21.00
2019-04-25T09:16:35.405Z,21.10
2019-04-25T09:19:03.055Z,21.30
2019-04-25T09:21:29.715Z,21.50
2019-04-25T09:23:55.791Z,21.50
2019-04-25T09:26:22.138Z,21.50
2019-04-25T09:28:49.977Z,21.60
2019-04-25T09:31:16.075Z,21.80
2019-04-25T09:33:43.329Z,21.80
2019-04-25T09:36:10.399Z,21.80
2019-04-25T09:38:36.965Z,21.90
2019-04-25T09:41:03.858Z,22.10
2019-04-25T09:43:30.111Z,22.00
2019-04-25T09:46:10.299Z,22.30
2019-04-25T09:48:55.129Z,22.40
2019-04-25T09:51:23.656Z,22.30
2019-04-25T09:53:51.856Z,22.20
2019-04-25T09:56:23.928Z,22.10
2019-04-25T09:58:53.735Z,22.20
2019-04-25T10:01:21.633Z,22.60
2019-04-25T10:03:47.942Z,22.40
2019-04-25T10:06:16.433Z,22.50
2019-04-25T10:08:44.763Z,22.90
2019-04-25T10:11:10.675Z,22.60
2019-04-25T10:13:37.599Z,22.80
2019-04-25T10:16:07.400Z,22.90
2019-04-25T10:18:34.507Z,23.20
2019-04-25T10:21:01.907Z,23.40
2019-04-25T10:23:28.115Z,23.30
2019-04-25T10:25:54.860Z,23.50
2019-04-25T10:28:21.262Z,23.50
2019-04-25T10:30:47.605Z,23.40
2019-04-25T10:33:14.289Z,23.60
2019-04-25T10:35:47.940Z,23.80
2019-04-25T10:38:08.584Z,23.90
2019-04-25T10:40:35.012Z,24.20
2019-04-25T10:43:01.564Z,23.90
2019-04-25T10:45:27.817Z,24.10
2019-04-25T10:47:55.304Z,24.30
2019-04-25T10:50:23.806Z,24.30
2019-04-25T10:52:50.209Z,24.30
2019-04-25T10:55:16.439Z,24.40
2019-04-25T10:57:43.653Z,24.50
2019-04-25T11:00:23.973Z,24.60
2019-04-25T11:02:50.084Z,24.80
2019-04-25T11:05:17.255Z,24.30
2019-04-25T11:07:44.454Z,24.40
2019-04-25T11:10:11.073Z,24.50
2019-04-25T11:12:55.237Z,24.70
2019-04-25T11:17:55.348Z,24.80
2019-04-25T11:20:27.290Z,25.10
2019-04-25T11:22:53.760Z,25.00
2019-04-25T11:25:20.290Z,25.30
2019-04-25T11:27:47.344Z,25.00
2019-04-25T11:30:15.508Z,25.20
2019-04-25T11:32:42.187Z,25.30
2019-04-25T11:35:09.578Z,25.20
2019-04-25T11:37:35.964Z,25.30
2019-04-25T11:40:06.889Z,25.70
2019-04-25T11:42:47.105Z,25.60
2019-04-25T11:45:14.356Z,25.70
2019-04-25T11:47:40.663Z,26.00
2019-04-25T11:50:07.298Z,25.70
2019-04-25T11:52:33.650Z,25.80
2019-04-25T11:55:00.065Z,25.80
2019-04-25T11:57:26.278Z,25.90
2019-04-25T11:59:52.423Z,25.80
2019-04-25T12:02:20.582Z,25.70
2019-04-25T12:04:47.752Z,25.50
2019-04-25T12:07:14.433Z,25.80
2019-04-25T12:09:40.646Z,25.70
2019-04-25T12:12:07.007Z,25.90
2019-04-25T12:14:34.147Z,25.80
2019-04-25T12:17:00.462Z,26.00
2019-04-25T12:19:34.931Z,26.10
2019-04-25T12:21:56.751Z,26.20
2019-04-25T12:24:23.895Z,26.10
2019-04-25T12:26:50.701Z,25.70
2019-04-25T12:29:16.961Z,25.90
2019-04-25T12:31:45.526Z,25.70
2019-04-25T12:34:11.048Z,25.90
2019-04-25T12:36:37.143Z,25.80
2019-04-25T12:39:05.502Z,26.00
2019-04-25T12:41:31.634Z,26.00
2019-04-25T12:44:03.659Z,26.10
2019-04-25T12:46:34.923Z,26.50
2019-04-25T12:49:01.645Z,26.40
2019-04-25T12:51:27.779Z,26.50
2019-04-25T12:53:54.916Z,26.00
2019-04-25T12:56:24.583Z,26.00
2019-04-25T12:58:49.760Z,26.40
2019-04-25T13:01:15.894Z,26.50
2019-04-25T13:03:43.867Z,26.00
2019-04-25T13:06:10.174Z,26.00
2019-04-25T13:08:36.378Z,25.70
2019-04-25T13:11:09.871Z,25.70
2019-04-25T13:13:30.602Z,25.70
2019-04-25T13:15:56.960Z,26.00
2019-04-25T13:18:23.129Z,26.20
2019-04-25T13:20:49.422Z,26.20
2019-04-25T13:23:15.798Z,26.20
2019-04-25T13:25:42.060Z,26.00
2019-04-25T13:28:14.316Z,26.00
2019-04-25T13:31:04.041Z,26.20
2019-04-25T13:33:29.395Z,26.50
2019-04-25T13:36:09.388Z,26.90
2019-04-25T13:38:35.525Z,26.90
2019-04-25T13:41:01.754Z,26.70
2019-04-25T13:43:27.869Z,26.50
2019-04-25T13:46:01.394Z,26.00
2019-04-25T13:48:28.003Z,25.90
2019-04-25T13:50:54.609Z,25.90
2019-04-25T13:53:20.879Z,25.90
2019-04-25T13:55:47.022Z,26.10
2019-04-25T13:58:14.384Z,26.20
2019-04-25T14:00:40.842Z,26.00
2019-04-25T14:03:07.162Z,26.00
2019-04-25T14:05:35.197Z,25.90
2019-04-25T14:08:01.602Z,26.00
2019-04-25T14:10:28.072Z,26.00
2019-04-25T14:12:54.228Z,25.70
2019-04-25T14:15:24.167Z,25.50
2019-04-25T14:18:10.780Z,25.50
2019-04-25T14:20:38.929Z,25.60
2019-04-25T14:23:06.649Z,25.50
2019-04-25T14:25:40.115Z,25.70
2019-04-25T14:28:06.501Z,25.60
2019-04-25T14:30:34.354Z,25.40
2019-04-25T14:33:00.990Z,25.50
2019-04-25T14:35:27.441Z,25.60
2019-04-25T14:37:53.939Z,25.40
2019-04-25T14:40:20.392Z,25.30
2019-04-25T14:42:47.090Z,25.30
2019-04-25T14:45:14.031Z,25.40
2019-04-25T14:47:40.315Z,25.40
2019-04-25T14:50:07.158Z,25.40
2019-04-25T14:52:33.497Z,25.40
2019-04-25T14:55:10.155Z,25.30
2019-04-25T14:57:36.301Z,25.50
2019-04-25T15:00:06.370Z,25.50
2019-04-25T15:02:54.271Z,25.40
2019-04-25T15:05:20.359Z,25.30
2019-04-25T15:07:46.452Z,25.40
2019-04-25T15:10:12.577Z,25.40
2019-04-25T15:12:38.701Z,25.40
2019-04-25T15:15:24.676Z,25.30
2019-04-25T15:17:50.841Z,25.30
2019-04-25T15:20:16.932Z,25.30
2019-04-25T15:22:43.179Z,25.20
2019-04-25T15:25:09.664Z,25.20
2019-04-25T15:27:35.887Z,25.20
2019-04-25T15:30:05.022Z,25.10
2019-04-25T15:32:33.025Z,25.10
2019-04-25T15:34:59.388Z,25.20
2019-04-25T15:37:33.343Z,25.10
2019-04-25T15:40:04.377Z,25.00
2019-04-25T15:42:32.379Z,25.00
2019-04-25T15:45:20.257Z,25.00
2019-04-25T15:47:46.361Z,25.00
2019-04-25T15:50:13.017Z,25.00
2019-04-25T15:52:39.343Z,25.20
2019-04-25T15:55:07.251Z,25.10
2019-04-25T15:57:34.502Z,25.00
2019-04-25T16:00:00.895Z,24.90
2019-04-25T16:02:27.764Z,24.90
2019-04-25T16:04:54.903Z,24.90
2019-04-25T16:07:21.143Z,24.60
2019-04-25T16:09:47.347Z,24.50
2019-04-25T16:12:14.054Z,24.40
2019-04-25T16:14:41.238Z,24.40
2019-04-25T16:17:07.445Z,24.40
2019-04-25T16:19:33.541Z,24.30
2019-04-25T16:21:59.731Z,24.30
2019-04-25T16:24:26.254Z,24.20
2019-04-25T16:26:52.343Z,24.20
2019-04-25T16:29:18.487Z,24.20
2019-04-25T16:31:44.620Z,24.10
2019-04-25T16:34:10.907Z,24.00
2019-04-25T16:36:37.470Z,24.00
2019-04-25T16:39:06.389Z,23.90
2019-04-25T16:41:33.732Z,24.00
2019-04-25T16:44:02.047Z,23.90
2019-04-25T16:46:28.842Z,23.90
2019-04-25T16:48:54.980Z,23.90
2019-04-25T16:51:21.559Z,23.90
2019-04-25T16:53:47.671Z,23.80
2019-04-25T16:56:13.859Z,23.70
2019-04-25T16:58:40.795Z,23.60
2019-04-25T17:01:13.380Z,23.60
2019-04-25T17:03:59.324Z,23.50
2019-04-25T17:06:25.927Z,23.50
2019-04-25T17:08:52.143Z,23.50
2019-04-25T17:11:18.536Z,23.40
2019-04-25T17:13:52.831Z,23.40
2019-04-25T17:16:37.647Z,23.40
2019-04-25T17:19:11.469Z,23.30
2019-04-25T17:21:37.700Z,23.30
2019-04-25T17:24:03.981Z,23.20
2019-04-25T17:26:31.454Z,23.00
2019-04-25T17:28:59.744Z,22.90
2019-04-25T17:31:43.205Z,22.90
2019-04-25T17:34:11.275Z,22.80
2019-04-25T17:36:39.465Z,22.80
2019-04-25T17:39:10.259Z,22.70
2019-04-25T17:41:36.399Z,22.70
2019-04-25T17:44:02.615Z,22.60
2019-04-25T17:46:28.747Z,22.60
2019-04-25T17:48:54.915Z,22.50
2019-04-25T17:51:21.233Z,22.40
2019-04-25T17:53:47.463Z,22.20
2019-04-25T17:56:13.871Z,22.10
2019-04-25T17:58:41.185Z,22.00
2019-04-25T18:01:09.612Z,21.90
2019-04-25T18:03:35.756Z,21.90
2019-04-25T18:06:02.098Z,21.80
2019-04-25T18:08:28.268Z,21.80
2019-04-25T18:10:54.451Z,21.80
2019-04-25T18:13:20.542Z,21.60
2019-04-25T18:15:54.619Z,21.50
2019-04-25T18:18:28.191Z,21.40
2019-04-25T18:20:54.303Z,21.30
2019-04-25T18:23:38.660Z,21.20
2019-04-25T18:26:09.698Z,21.20
2019-04-25T18:28:41.530Z,21.10
2019-04-25T18:31:08.732Z,21.10
2019-04-25T18:33:35.943Z,21.10
2019-04-25T18:36:10.604Z,21.10
2019-04-25T18:38:39.597Z,21.00
2019-04-25T18:41:10.591Z,21.00
2019-04-25T18:43:42.680Z,20.90
2019-04-25T18:46:16.724Z,20.90
2019-04-25T18:48:42.834Z,20.80
2019-04-25T18:51:08.914Z,20.70
2019-04-25T18:53:52.064Z,20.70
2019-04-25T18:56:23.070Z,20.60
2019-04-25T18:59:07.934Z,20.50
2019-04-25T19:01:39.363Z,20.50
2019-04-25T19:04:07.642Z,20.40
2019-04-25T19:06:33.712Z,20.50
2019-04-25T19:08:59.919Z,20.40
2019-04-25T19:11:26.062Z,20.30
2019-04-25T19:14:12.149Z,20.30
2019-04-25T19:16:39.652Z,20.20
2019-04-25T19:19:05.970Z,20.20
2019-04-25T19:21:33.379Z,20.10
2019-04-25T19:23:59.697Z,20.00
2019-04-25T19:26:25.837Z,19.90
2019-04-25T19:28:52.071Z,19.90
2019-04-25T19:31:18.432Z,19.70
2019-04-25T19:33:45.455Z,19.70
2019-04-25T19:36:11.912Z,19.60
2019-04-25T19:38:38.087Z,19.60
2019-04-25T19:41:06.174Z,19.40
2019-04-25T19:43:44.480Z,19.50
2019-04-25T19:46:10.828Z,19.30
2019-04-25T19:48:37.175Z,19.20
2019-04-25T19:51:03.520Z,19.10
2019-04-25T19:53:29.712Z,19.10
2019-04-25T19:55:55.940Z,18.90
2019-04-25T19:58:22.132Z,18.80
2019-04-25T20:00:49.526Z,18.80
2019-04-25T20:03:17.695Z,18.80
2019-04-25T20:05:48.787Z,18.80
2019-04-25T20:08:26.033Z,18.80
2019-04-25T20:11:10.865Z,18.70
2019-04-25T20:13:37.004Z,18.70
2019-04-25T20:16:03.212Z,18.60
2019-04-25T20:18:29.334Z,18.60
2019-04-25T20:20:55.428Z,18.60
2019-04-25T20:23:21.554Z,18.60
2019-04-25T20:25:48.276Z,18.60
2019-04-25T20:28:14.623Z,18.50
2019-04-25T20:30:41.007Z,18.50
2019-04-25T20:33:07.188Z,18.40
2019-04-25T20:35:33.349Z,18.40
2019-04-25T20:37:59.554Z,18.30
2019-04-25T20:40:25.848Z,18.20
2019-04-25T20:42:52.022Z,18.10
2019-04-25T20:45:19.244Z,18.10
2019-04-25T20:47:46.461Z,18.00
2019-04-25T20:50:13.095Z,17.90
2019-04-25T20:52:39.337Z,17.90
2019-04-25T20:55:06.082Z,17.90
2019-04-25T20:57:32.307Z,17.90
2019-04-25T20:59:58.469Z,17.90
2019-04-25T21:02:24.578Z,17.90
2019-04-25T21:04:50.707Z,17.80
2019-04-25T21:07:16.994Z,17.80
2019-04-25T21:09:43.139Z,17.70
2019-04-25T21:12:09.415Z,17.60
2019-04-25T21:14:37.799Z,17.60
2019-04-25T21:17:18.135Z,17.60
2019-04-25T21:19:48.704Z,17.50
2019-04-25T21:22:14.329Z,17.40
2019-04-25T21:24:40.610Z,17.30
2019-04-25T21:27:06.815Z,17.40
2019-04-25T21:29:33.039Z,17.30
2019-04-25T21:31:59.265Z,17.20
2019-04-25T21:34:28.304Z,17.10
2019-04-25T21:36:53.518Z,17.10
2019-04-25T21:39:30.838Z,17.00
2019-04-25T21:42:01.906Z,16.90
2019-04-25T21:44:28.540Z,16.90
2019-04-25T21:46:54.714Z,16.80
2019-04-25T21:49:21.239Z,16.70
2019-04-25T21:51:47.364Z,16.80
2019-04-25T21:54:13.485Z,16.80
2019-04-25T21:56:39.801Z,16.80
2019-04-25T21:59:06.227Z,16.60
2019-04-25T22:01:34.516Z,16.60
2019-04-25T22:04:00.762Z,16.70
2019-04-25T22:06:27.229Z,16.80
2019-04-25T22:08:54.306Z,16.90
2019-04-25T22:11:21.360Z,17.00
2019-04-25T22:13:48.071Z,17.00
2019-04-25T22:16:14.509Z,17.00
2019-04-25T22:18:40.919Z,17.00
2019-04-25T22:21:07.635Z,17.00
2019-04-25T22:23:34.161Z,17.00
2019-04-25T22:26:01.078Z,16.90
2019-04-25T22:28:28.147Z,16.90
2019-04-25T22:30:57.719Z,17.00
2019-04-25T22:33:37.946Z,16.90
2019-04-25T22:36:06.098Z,16.80
2019-04-25T22:38:32.400Z,16.90
2019-04-25T22:40:59.185Z,16.80
2019-04-25T22:43:27.524Z,16.60
2019-04-25T22:45:54.092Z,16.60
2019-04-25T22:48:25.706Z,16.40
2019-04-25T22:50:52.148Z,16.50
2019-04-25T22:53:23.089Z,16.40
2019-04-25T22:55:46.351Z,16.30
2019-04-25T22:58:12.596Z,16.20
2019-04-25T23:00:39.110Z,16.20
2019-04-25T23:03:10.252Z,16.20
2019-04-25T23:05:41.418Z,16.20
2019-04-25T23:08:07.966Z,16.20
2019-04-25T23:10:34.136Z,16.10
2019-04-25T23:13:00.249Z,16.00
2019-04-25T23:15:26.374Z,16.10
2019-04-25T23:17:52.890Z,16.00
2019-04-25T23:20:19.526Z,15.90
2019-04-25T23:22:45.818Z,15.90
2019-04-25T23:25:14.622Z,15.90
2019-04-25T23:27:45.884Z,15.60
2019-04-25T23:30:14.695Z,15.60
2019-04-25T23:32:40.772Z,15.60
2019-04-25T23:35:22.464Z,15.60
2019-04-25T23:37:35.298Z,15.60
2019-04-25T23:40:01.799Z,15.50
2019-04-25T23:42:27.916Z,15.60
2019-04-25T23:44:54.473Z,15.50
2019-04-25T23:47:20.648Z,15.50
2019-04-25T23:49:46.780Z,15.50
2019-04-25T23:52:13.174Z,15.40
2019-04-25T23:54:39.312Z,15.40
2019-04-25T23:57:05.900Z,15.40
2019-04-25T23:59:31.996Z,15.20
